createdAt,value
2022-08-09T00:00:08.259Z,1024.1
2022-08-09T00:01:02.802Z,1024.1
2022-08-09T00:02:02.294Z,1024.1
2022-08-09T00:04:15.426Z,1024.1
2022-08-09T00:04:35.671Z,1024.2
2022-08-09T00:06:23.631Z,1024.1
2022-08-09T00:06:23.735Z,1024.1
2022-08-09T00:07:03.182Z,1024.1
2022-08-09T00:08:02.777Z,1024.1
2022-08-09T00:09:05.973Z,1024.1
2022-08-09T00:10:04.142Z,1024.1
2022-08-09T00:11:27.807Z,1024.1
2022-08-09T00:12:05.388Z,1024.1
2022-08-09T00:13:18.203Z,1024.1
2022-08-09T00:14:03.470Z,1024.2
2022-08-09T00:15:14.922Z,1024.2
2022-08-09T00:16:03.559Z,1024.2
2022-08-09T00:17:02.281Z,1024.2
2022-08-09T00:18:12.823Z,1024.2
2022-08-09T00:19:10.681Z,1024.2
2022-08-09T00:20:04.801Z,1024.2
2022-08-09T00:21:04.268Z,1024.2
2022-08-09T00:22:04.642Z,1024.2
2022-08-09T00:24:00.233Z,1024.2
2022-08-09T00:24:01.918Z,1024.2
2022-08-09T00:25:12.972Z,1024.3
2022-08-09T00:26:05.759Z,1024.2
2022-08-09T00:27:02.570Z,1024.2
2022-08-09T00:28:05.019Z,1024.2
2022-08-09T00:29:02.186Z,1024.3
2022-08-09T00:30:27.229Z,1024.2
2022-08-09T00:32:00.714Z,1024.2
2022-08-09T00:32:03.301Z,1024.2
2022-08-09T00:33:02.322Z,1024.2
2022-08-09T00:34:03.052Z,1024.2
2022-08-09T00:35:03.641Z,1024.2
2022-08-09T00:36:02.470Z,1024.2
2022-08-09T00:37:05.036Z,1024.1
2022-08-09T00:38:05.087Z,1024.2
2022-08-09T00:39:05.355Z,1024.2
2022-08-09T00:40:19.968Z,1024.2
2022-08-09T00:41:05.469Z,1024.2
2022-08-09T00:44:28.555Z,1024.3
2022-08-09T00:44:28.627Z,1024.3
2022-08-09T00:44:28.633Z,1024.3
2022-08-09T00:45:16.496Z,1024.3
2022-08-09T00:46:03.325Z,1024.3
2022-08-09T00:47:06.212Z,1024.3
2022-08-09T00:48:02.052Z,1024.3
2022-08-09T00:49:05.811Z,1024.3
2022-08-09T00:50:03.152Z,1024.3
2022-08-09T00:51:13.175Z,1024.3
2022-08-09T00:52:17.569Z,1024.3
2022-08-09T00:53:12.121Z,1024.4
2022-08-09T00:54:02.958Z,1024.3
2022-08-09T00:55:02.595Z,1024.4
2022-08-09T00:56:10.391Z,1024.4
2022-08-09T00:57:10.507Z,1024.3
2022-08-09T00:58:06.238Z,1024.3
2022-08-09T00:59:02.455Z,1024.3
2022-08-09T01:00:23.605Z,1024.4
2022-08-09T01:01:04.087Z,1024.3
2022-08-09T01:02:03.813Z,1024.4
2022-08-09T01:03:02.136Z,1024.4
2022-08-09T01:04:05.950Z,1024.3
2022-08-09T01:05:03.859Z,1024.4
2022-08-09T01:06:18.779Z,1024.3
2022-08-09T01:07:06.492Z,1024.4
2022-08-09T01:08:02.779Z,1024.4
2022-08-09T01:09:11.004Z,1024.3
2022-08-09T01:10:01.911Z,1024.4
2022-08-09T01:11:02.877Z,1024.3
2022-08-09T01:12:02.740Z,1024.3
2022-08-09T01:13:02.695Z,1024.4
2022-08-09T01:14:02.591Z,1024.4
2022-08-09T01:15:17.749Z,1024.4
2022-08-09T01:16:02.015Z,1024.4
2022-08-09T01:17:03.643Z,1024.4
2022-08-09T01:18:02.568Z,1024.4
2022-08-09T01:19:05.570Z,1024.4
2022-08-09T01:20:03.879Z,1024.4
2022-08-09T01:21:03.586Z,1024.4
2022-08-09T01:22:12.548Z,1024.4
2022-08-09T01:23:02.540Z,1024.4
2022-08-09T01:24:05.713Z,1024.4
2022-08-09T01:25:03.343Z,1024.4
2022-08-09T01:26:02.160Z,1024.4
2022-08-09T01:27:02.139Z,1024.3
2022-08-09T01:28:05.328Z,1024.3
2022-08-09T01:29:02.178Z,1024.4
2022-08-09T01:30:04.244Z,1024.4
2022-08-09T01:31:07.372Z,1024.4
2022-08-09T01:32:36.199Z,1024.3
2022-08-09T01:33:02.014Z,1024.4
2022-08-09T01:34:03.768Z,1024.3
2022-08-09T01:35:39.078Z,1024.3
2022-08-09T01:36:02.007Z,1024.3
2022-08-09T01:37:03.019Z,1024.3
2022-08-09T01:38:15.934Z,1024.3
2022-08-09T01:39:01.915Z,1024.4
2022-08-09T01:40:03.520Z,1024.3
2022-08-09T01:41:06.560Z,1024.3
2022-08-09T01:42:12.779Z,1024.3
2022-08-09T01:43:02.599Z,1024.4
2022-08-09T01:44:02.579Z,1024.4
2022-08-09T01:45:05.850Z,1024.4
2022-08-09T01:46:04.219Z,1024.4
2022-08-09T01:47:02.141Z,1024.4
2022-08-09T01:48:06.599Z,1024.4
2022-08-09T01:49:14.979Z,1024.4
2022-08-09T01:50:08.106Z,1024.3
2022-08-09T01:51:03.664Z,1024.4
2022-08-09T01:52:08.159Z,1024.4
2022-08-09T01:53:21.833Z,1024.3
2022-08-09T01:54:04.598Z,1024.3
2022-08-09T01:55:02.613Z,1024.4
2022-08-09T01:56:04.674Z,1024.4
2022-08-09T01:57:04.677Z,1024.4
2022-08-09T01:58:04.982Z,1024.4
2022-08-09T01:59:03.666Z,1024.4
2022-08-09T02:00:36.577Z,1024.4
2022-08-09T02:01:02.530Z,1024.4
2022-08-09T02:02:05.768Z,1024.4
2022-08-09T02:03:02.622Z,1024.3
2022-08-09T02:04:02.608Z,1024.4
2022-08-09T02:05:16.275Z,1024.4
2022-08-09T02:06:07.438Z,1024.4
2022-08-09T02:07:05.036Z,1024.4
2022-08-09T02:09:00.133Z,1024.4
2022-08-09T02:09:03.415Z,1024.4
2022-08-09T02:10:04.956Z,1024.5
2022-08-09T02:11:02.956Z,1024.6
2022-08-09T02:12:02.719Z,1024.5
2022-08-09T02:13:02.943Z,1024.5
2022-08-09T02:14:09.613Z,1024.5
2022-08-09T02:15:06.288Z,1024.5
2022-08-09T02:16:02.106Z,1024.5
2022-08-09T02:18:10.907Z,1024.4
2022-08-09T02:18:12.289Z,1024.5
2022-08-09T02:19:05.903Z,1024.5
2022-08-09T02:20:02.806Z,1024.5
2022-08-09T02:21:02.738Z,1024.4
2022-08-09T02:22:02.560Z,1024.5
2022-08-09T02:23:03.255Z,1024.4
2022-08-09T02:24:02.688Z,1024.5
2022-08-09T02:25:02.900Z,1024.4
2022-08-09T02:26:03.792Z,1024.4
2022-08-09T02:27:02.599Z,1024.4
2022-08-09T02:28:09.934Z,1024.4
2022-08-09T02:29:02.420Z,1024.4
2022-08-09T02:30:02.728Z,1024.3
2022-08-09T02:31:04.027Z,1024.3
2022-08-09T02:32:02.166Z,1024.4
2022-08-09T02:33:02.030Z,1024.4
2022-08-09T02:34:51.681Z,1024.3
2022-08-09T02:35:26.256Z,1024.3
2022-08-09T02:36:04.947Z,1024.3
2022-08-09T02:37:04.240Z,1024.4
2022-08-09T02:38:02.603Z,1024.3
2022-08-09T02:39:03.726Z,1024.3
2022-08-09T02:40:10.593Z,1024.3
2022-08-09T02:41:02.858Z,1024.3
2022-08-09T02:42:03.091Z,1024.3
2022-08-09T02:43:02.180Z,1024.4
2022-08-09T02:44:30.467Z,1024.4
2022-08-09T02:45:02.695Z,1024.4
2022-08-09T02:46:03.114Z,1024.4
2022-08-09T02:47:04.795Z,1024.4
2022-08-09T02:48:04.451Z,1024.4
2022-08-09T02:49:04.307Z,1024.4
2022-08-09T02:50:03.242Z,1024.4
2022-08-09T02:51:03.114Z,1024.3
2022-08-09T02:52:04.327Z,1024.3
2022-08-09T02:53:04.343Z,1024.3
2022-08-09T02:54:03.938Z,1024.4
2022-08-09T02:55:21.430Z,1024.4
2022-08-09T02:56:02.392Z,1024.4
2022-08-09T02:57:24.062Z,1024.4
2022-08-09T02:58:38.384Z,1024.4
2022-08-09T02:59:02.182Z,1024.4
2022-08-09T03:00:26.773Z,1024.4
2022-08-09T03:01:07.900Z,1024.4
2022-08-09T03:02:16.817Z,1024.4
2022-08-09T03:03:02.424Z,1024.4
2022-08-09T03:04:20.269Z,1024.4
2022-08-09T03:05:02.173Z,1024.4
2022-08-09T03:06:02.705Z,1024.4
2022-08-09T03:07:14.967Z,1024.4
2022-08-09T03:08:02.137Z,1024.4
2022-08-09T03:09:02.935Z,1024.4
2022-08-09T03:10:02.538Z,1024.4
2022-08-09T03:11:02.379Z,1024.4
2022-08-09T03:12:13.992Z,1024.4
2022-08-09T03:13:01.872Z,1024.4
2022-08-09T03:14:02.849Z,1024.4
2022-08-09T03:15:06.071Z,1024.4
2022-08-09T03:16:07.603Z,1024.5
2022-08-09T03:17:06.266Z,1024.4
2022-08-09T03:18:11.046Z,1024.4
2022-08-09T03:19:02.504Z,1024.4
2022-08-09T03:20:11.898Z,1024.5
2022-08-09T03:21:02.744Z,1024.5
2022-08-09T03:22:03.799Z,1024.4
2022-08-09T03:23:24.915Z,1024.4
2022-08-09T03:24:05.578Z,1024.4
2022-08-09T03:25:58.910Z,1024.4
2022-08-09T03:26:05.858Z,1024.4
2022-08-09T03:27:07.591Z,1024.5
2022-08-09T03:28:02.893Z,1024.4
2022-08-09T03:29:23.550Z,1024.4
2022-08-09T03:30:07.845Z,1024.4
2022-08-09T03:31:22.923Z,1024.4
2022-08-09T03:32:02.742Z,1024.4
2022-08-09T03:33:19.783Z,1024.5
2022-08-09T03:34:04.908Z,1024.4
2022-08-09T03:35:44.067Z,1024.4
2022-08-09T03:36:17.574Z,1024.4
2022-08-09T03:37:58.662Z,1024.3
2022-08-09T03:38:03.329Z,1024.4
2022-08-09T03:39:02.372Z,1024.4
2022-08-09T03:40:05.687Z,1024.4
2022-08-09T03:41:04.486Z,1024.4
2022-08-09T03:42:07.439Z,1024.4
2022-08-09T03:43:03.034Z,1024.3
2022-08-09T03:44:09.523Z,1024.4
2022-08-09T03:45:04.102Z,1024.4
2022-08-09T03:46:30.328Z,1024.4
2022-08-09T03:47:07.353Z,1024.4
2022-08-09T03:48:02.277Z,1024.4
2022-08-09T03:49:09.944Z,1024.4
2022-08-09T03:50:03.756Z,1024.3
2022-08-09T03:51:02.656Z,1024.4
2022-08-09T03:52:06.085Z,1024.5
2022-08-09T03:53:05.694Z,1024.5
2022-08-09T03:54:03.260Z,1024.5
2022-08-09T03:55:10.208Z,1024.4
2022-08-09T03:56:02.764Z,1024.3
2022-08-09T03:57:18.208Z,1024.4
2022-08-09T03:58:20.985Z,1024.5
2022-08-09T03:59:07.527Z,1024.5
2022-08-09T04:00:02.492Z,1024.5
2022-08-09T04:01:03.231Z,1024.6
2022-08-09T04:02:02.659Z,1024.5
2022-08-09T04:03:02.655Z,1024.5
2022-08-09T04:04:15.263Z,1024.5
2022-08-09T04:05:28.219Z,1024.5
2022-08-09T04:06:05.174Z,1024.5
2022-08-09T04:07:03.156Z,1024.5
2022-08-09T04:08:02.557Z,1024.6
2022-08-09T04:09:02.374Z,1024.5
2022-08-09T04:10:02.648Z,1024.5
2022-08-09T04:11:02.999Z,1024.5
2022-08-09T04:12:03.120Z,1024.5
2022-08-09T04:13:05.005Z,1024.4
2022-08-09T04:15:17.439Z,1024.5
2022-08-09T04:16:18.916Z,1024.5
2022-08-09T04:16:21.879Z,1024.5
2022-08-09T04:17:03.894Z,1024.5
2022-08-09T04:18:02.728Z,1024.6
2022-08-09T04:19:02.697Z,1024.6
2022-08-09T04:20:03.956Z,1024.6
2022-08-09T04:21:04.472Z,1024.6
2022-08-09T04:22:02.574Z,1024.6
2022-08-09T04:23:02.628Z,1024.6
2022-08-09T04:24:03.320Z,1024.6
2022-08-09T04:25:04.166Z,1024.7
2022-08-09T04:26:03.003Z,1024.6
2022-08-09T04:27:01.876Z,1024.6
2022-08-09T04:28:04.167Z,1024.6
2022-08-09T04:29:15.897Z,1024.6
2022-08-09T04:30:03.236Z,1024.6
2022-08-09T04:31:13.035Z,1024.6
2022-08-09T04:32:05.844Z,1024.6
2022-08-09T04:33:02.390Z,1024.7
2022-08-09T04:34:02.247Z,1024.7
2022-08-09T04:35:02.168Z,1024.6
2022-08-09T04:36:03.742Z,1024.7
2022-08-09T04:37:02.569Z,1024.6
2022-08-09T04:38:04.297Z,1024.6
2022-08-09T04:39:02.185Z,1024.7
2022-08-09T04:40:02.666Z,1024.7
2022-08-09T04:41:03.093Z,1024.8
2022-08-09T04:42:03.883Z,1024.8
2022-08-09T04:43:05.792Z,1024.7
2022-08-09T04:44:11.449Z,1024.7
2022-08-09T04:45:02.384Z,1024.7
2022-08-09T04:46:03.721Z,1024.7
2022-08-09T04:47:06.616Z,1024.7
2022-08-09T04:48:10.659Z,1024.8
2022-08-09T04:49:02.830Z,1024.7
2022-08-09T04:50:02.840Z,1024.7
2022-08-09T04:51:03.713Z,1024.7
2022-08-09T04:52:02.554Z,1024.7
2022-08-09T04:53:04.151Z,1024.8
2022-08-09T04:54:01.968Z,1024.7
2022-08-09T04:55:12.348Z,1024.8
2022-08-09T04:56:03.655Z,1024.7
2022-08-09T04:57:04.635Z,1024.8
2022-08-09T04:58:10.209Z,1024.8
2022-08-09T04:59:15.843Z,1024.8
2022-08-09T05:00:08.076Z,1024.8
2022-08-09T05:01:18.748Z,1024.8
2022-08-09T05:02:03.559Z,1024.8
2022-08-09T05:03:44.318Z,1024.8
2022-08-09T05:04:03.628Z,1024.8
2022-08-09T05:05:10.528Z,1024.8
2022-08-09T05:06:07.887Z,1024.8
2022-08-09T05:07:03.444Z,1024.8
2022-08-09T05:08:02.256Z,1024.8
2022-08-09T05:09:02.436Z,1024.8
2022-08-09T05:10:02.899Z,1024.8
2022-08-09T05:11:03.124Z,1024.8
2022-08-09T05:12:01.998Z,1024.8
2022-08-09T05:13:04.491Z,1024.8
2022-08-09T05:14:07.009Z,1024.8
2022-08-09T05:15:24.776Z,1024.8
2022-08-09T05:16:02.251Z,1024.8
2022-08-09T05:17:02.111Z,1024.8
2022-08-09T05:19:00.798Z,1024.8
2022-08-09T05:19:03.386Z,1024.8
2022-08-09T05:20:02.410Z,1024.8
2022-08-09T05:21:02.235Z,1024.9
2022-08-09T05:22:03.508Z,1024.9
2022-08-09T05:24:03.865Z,1024.9
2022-08-09T05:24:05.601Z,1024.9
2022-08-09T05:25:03.186Z,1024.9
2022-08-09T05:26:03.074Z,1024.9
2022-08-09T05:27:01.855Z,1024.9
2022-08-09T05:28:03.460Z,1024.9
2022-08-09T05:29:02.810Z,1024.9
2022-08-09T05:30:02.880Z,1025
2022-08-09T05:31:10.393Z,1024.9
2022-08-09T05:32:02.204Z,1024.9
2022-08-09T05:33:02.376Z,1024.9
2022-08-09T05:34:02.376Z,1024.9
2022-08-09T05:35:02.208Z,1024.9
2022-08-09T05:36:02.063Z,1025
2022-08-09T05:37:11.725Z,1025
2022-08-09T05:38:02.898Z,1024.9
2022-08-09T05:39:09.642Z,1024.9
2022-08-09T05:40:04.501Z,1024.9
2022-08-09T05:41:01.857Z,1024.9
2022-08-09T05:42:06.330Z,1025
2022-08-09T05:43:05.099Z,1024.9
2022-08-09T05:44:05.629Z,1024.9
2022-08-09T05:45:04.112Z,1024.9
2022-08-09T05:46:03.063Z,1024.9
2022-08-09T05:47:06.240Z,1024.9
2022-08-09T05:48:02.175Z,1024.9
2022-08-09T05:50:35.431Z,1024.9
2022-08-09T05:51:12.247Z,1024.9
2022-08-09T05:51:46.862Z,1025
2022-08-09T05:52:02.706Z,1025
2022-08-09T05:53:02.595Z,1025
2022-08-09T05:54:05.635Z,1025
2022-08-09T05:55:09.810Z,1025.1
2022-08-09T05:56:02.505Z,1025
2022-08-09T05:57:06.811Z,1025
2022-08-09T05:58:07.716Z,1025
2022-08-09T05:59:02.162Z,1025
2022-08-09T06:00:02.414Z,1025
2022-08-09T06:01:01.964Z,1025
2022-08-09T06:02:02.945Z,1025
2022-08-09T06:03:02.757Z,1025
2022-08-09T06:04:06.429Z,1025
2022-08-09T06:05:02.310Z,1025
2022-08-09T06:06:06.920Z,1025.1
2022-08-09T06:07:02.054Z,1025
2022-08-09T06:08:11.579Z,1025.1
2022-08-09T06:09:55.375Z,1025
2022-08-09T06:10:03.671Z,1025
2022-08-09T06:11:17.877Z,1025
2022-08-09T06:12:02.778Z,1025
2022-08-09T06:13:21.268Z,1025
2022-08-09T06:14:02.181Z,1025
2022-08-09T06:15:10.403Z,1025
2022-08-09T06:16:05.797Z,1025
2022-08-09T06:17:10.614Z,1025
2022-08-09T06:18:02.430Z,1025.1
2022-08-09T06:19:06.409Z,1025.1
2022-08-09T06:20:04.743Z,1025
2022-08-09T06:21:04.447Z,1025
2022-08-09T06:22:03.952Z,1025
2022-08-09T06:23:03.494Z,1024.9
2022-08-09T06:24:03.257Z,1025
2022-08-09T06:25:02.111Z,1025
2022-08-09T06:26:02.929Z,1025
2022-08-09T06:27:02.558Z,1025
2022-08-09T06:28:02.541Z,1025
2022-08-09T06:29:06.000Z,1025
2022-08-09T06:30:10.399Z,1025
2022-08-09T06:31:04.287Z,1025
2022-08-09T06:33:41.975Z,1025
2022-08-09T06:33:53.158Z,1025
2022-08-09T06:34:04.350Z,1025
2022-08-09T06:35:07.430Z,1025
2022-08-09T06:36:07.585Z,1025
2022-08-09T06:37:03.055Z,1025
2022-08-09T06:38:07.249Z,1025
2022-08-09T06:39:12.063Z,1025
2022-08-09T06:40:24.834Z,1025
2022-08-09T06:41:04.132Z,1025
2022-08-09T06:42:11.942Z,1025
2022-08-09T06:43:03.578Z,1025.1
2022-08-09T06:44:02.447Z,1025
2022-08-09T06:46:11.364Z,1025.1
2022-08-09T06:46:38.957Z,1025
2022-08-09T06:47:02.411Z,1025
2022-08-09T06:48:02.233Z,1025
2022-08-09T06:49:02.076Z,1025
2022-08-09T06:50:19.517Z,1025.1
2022-08-09T06:51:07.849Z,1025
2022-08-09T06:52:03.743Z,1025
2022-08-09T06:53:02.585Z,1025
2022-08-09T06:54:13.943Z,1025
2022-08-09T06:55:13.290Z,1025
2022-08-09T06:56:02.477Z,1025.1
2022-08-09T06:57:02.374Z,1025.1
2022-08-09T06:58:05.189Z,1025.1
2022-08-09T07:00:59.717Z,1025.1
2022-08-09T07:01:00.294Z,1025
2022-08-09T07:02:05.598Z,1025.1
2022-08-09T07:03:06.611Z,1025
2022-08-09T07:04:05.179Z,1025
2022-08-09T07:05:02.006Z,1025.1
2022-08-09T07:06:05.774Z,1025
2022-08-09T07:07:05.562Z,1025
2022-08-09T07:08:04.166Z,1025.1
2022-08-09T07:09:02.006Z,1025.1
2022-08-09T07:10:32.405Z,1025
2022-08-09T07:11:04.053Z,1025.1
2022-08-09T07:12:02.255Z,1025.1
2022-08-09T07:13:30.647Z,1025.1
2022-08-09T07:14:06.671Z,1025.1
2022-08-09T07:16:47.963Z,1025.1
2022-08-09T07:16:57.857Z,1025.1
2022-08-09T07:17:02.511Z,1025.1
2022-08-09T07:18:03.599Z,1025.1
2022-08-09T07:19:02.456Z,1025.1
2022-08-09T07:20:03.655Z,1025.1
2022-08-09T07:21:08.181Z,1025.1
2022-08-09T07:22:02.644Z,1025.1
2022-08-09T07:23:20.119Z,1025.1
2022-08-09T07:24:05.414Z,1025.1
2022-08-09T07:25:10.146Z,1025.1
2022-08-09T07:26:03.378Z,1025.1
2022-08-09T07:27:02.727Z,1025.2
2022-08-09T07:28:04.928Z,1025.1
2022-08-09T07:29:13.989Z,1025.2
2022-08-09T07:30:02.120Z,1025.2
2022-08-09T07:31:04.868Z,1025.2
2022-08-09T07:32:01.752Z,1025.2
2022-08-09T07:33:16.965Z,1025.2
2022-08-09T07:34:02.586Z,1025.2
2022-08-09T07:35:11.504Z,1025.2
2022-08-09T07:36:02.590Z,1025.2
2022-08-09T07:37:04.102Z,1025.2
2022-08-09T07:38:02.362Z,1025.2
2022-08-09T07:39:02.925Z,1025.2
2022-08-09T07:40:05.295Z,1025.3
2022-08-09T07:41:16.974Z,1025.3
2022-08-09T07:42:01.845Z,1025.3
2022-08-09T07:43:02.666Z,1025.3
2022-08-09T07:44:01.871Z,1025.3
2022-08-09T07:45:37.139Z,1025.4
2022-08-09T07:46:03.580Z,1025.3
2022-08-09T07:47:02.513Z,1025.3
2022-08-09T07:48:05.649Z,1025.3
2022-08-09T07:49:02.593Z,1025.4
2022-08-09T07:52:18.368Z,1025.3
2022-08-09T07:53:05.602Z,1025.4
2022-08-09T07:54:08.957Z,1025.3
2022-08-09T07:55:11.848Z,1025.4
2022-08-09T07:56:07.109Z,1025.3
2022-08-09T07:57:02.306Z,1025.3
2022-08-09T07:58:14.103Z,1025.3
2022-08-09T07:59:02.059Z,1025.3
2022-08-09T08:00:04.584Z,1025.3
2022-08-09T08:01:11.967Z,1025.3
2022-08-09T08:02:02.989Z,1025.3
2022-08-09T08:03:08.658Z,1025.3
2022-08-09T08:04:02.277Z,1025.3
2022-08-09T08:05:02.116Z,1025.3
2022-08-09T08:06:01.997Z,1025.3
2022-08-09T08:09:04.357Z,1025.3
2022-08-09T08:09:07.892Z,1025.3
2022-08-09T08:09:34.331Z,1025.3
2022-08-09T08:10:11.781Z,1025.3
2022-08-09T08:12:29.802Z,1025.3
2022-08-09T08:12:31.099Z,1025.3
2022-08-09T08:13:04.419Z,1025.3
2022-08-09T08:14:06.641Z,1025.3
2022-08-09T08:15:02.565Z,1025.2
2022-08-09T08:16:03.135Z,1025.4
2022-08-09T08:17:52.783Z,1025.3
2022-08-09T08:18:04.176Z,1025.4
2022-08-09T08:19:04.920Z,1025.4
2022-08-09T08:20:13.870Z,1025.3
2022-08-09T08:21:02.622Z,1025.3
2022-08-09T08:22:03.431Z,1025.4
2022-08-09T08:23:18.028Z,1025.3
2022-08-09T08:24:17.127Z,1025.3
2022-08-09T08:25:02.067Z,1025.4
2022-08-09T08:26:13.315Z,1025.3
2022-08-09T08:27:02.717Z,1025.4
2022-08-09T08:28:02.611Z,1025.3
2022-08-09T08:29:03.199Z,1025.5
2022-08-09T08:30:06.649Z,1025.4
2022-08-09T08:31:15.507Z,1025.5
2022-08-09T08:32:06.562Z,1025.4
2022-08-09T08:33:04.876Z,1025.5
2022-08-09T08:34:05.319Z,1025.4
2022-08-09T08:35:03.765Z,1025.4
2022-08-09T08:36:04.645Z,1025.4
2022-08-09T08:37:02.509Z,1025.4
2022-08-09T08:38:12.258Z,1025.5
2022-08-09T08:39:02.093Z,1025.5
2022-08-09T08:40:03.214Z,1025.4
2022-08-09T08:41:06.715Z,1025.4
2022-08-09T08:42:03.218Z,1025.6
2022-08-09T08:43:02.442Z,1025.4
2022-08-09T08:44:04.182Z,1025.4
2022-08-09T08:45:14.259Z,1025.5
2022-08-09T08:47:02.890Z,1025.5
2022-08-09T08:47:13.579Z,1025.5
2022-08-09T08:48:05.713Z,1025.6
2022-08-09T08:49:02.596Z,1025.4
2022-08-09T08:50:03.577Z,1025.5
2022-08-09T08:51:02.504Z,1025.5
2022-08-09T08:52:50.676Z,1025.5
2022-08-09T08:53:04.985Z,1025.5
2022-08-09T08:54:05.285Z,1025.5
2022-08-09T08:55:06.703Z,1025.4
2022-08-09T08:56:03.144Z,1025.4
2022-08-09T08:57:01.948Z,1025.5
2022-08-09T08:58:06.691Z,1025.5
2022-08-09T08:59:20.752Z,1025.5
2022-08-09T09:00:02.342Z,1025.4
2022-08-09T09:01:35.528Z,1025.4
2022-08-09T09:02:06.635Z,1025.5
2022-08-09T09:03:32.994Z,1025.4
2022-08-09T09:04:02.640Z,1025.5
2022-08-09T09:05:12.668Z,1025.5
2022-08-09T09:06:05.985Z,1025.5
2022-08-09T09:07:02.558Z,1025.4
2022-08-09T09:08:02.460Z,1025.4
2022-08-09T09:09:58.804Z,1025.5
2022-08-09T09:10:09.335Z,1025.4
2022-08-09T09:11:02.958Z,1025.5
2022-08-09T09:12:02.377Z,1025.4
2022-08-09T09:13:15.321Z,1025.4
2022-08-09T09:14:02.139Z,1025.4
2022-08-09T09:15:01.994Z,1025.4
2022-08-09T09:16:02.033Z,1025.4
2022-08-09T09:17:10.835Z,1025.5
2022-08-09T09:18:02.129Z,1025.4
2022-08-09T09:19:42.181Z,1025.5
2022-08-09T09:20:02.007Z,1025.4
2022-08-09T09:21:04.441Z,1025.4
2022-08-09T09:22:07.567Z,1025.5
2022-08-09T09:23:03.466Z,1025.5
2022-08-09T09:24:22.169Z,1025.5
2022-08-09T09:26:12.882Z,1025.4
2022-08-09T09:26:13.014Z,1025.5
2022-08-09T09:27:01.842Z,1025.6
2022-08-09T09:28:11.221Z,1025.6
2022-08-09T09:29:17.402Z,1025.5
2022-08-09T09:30:41.422Z,1025.5
2022-08-09T09:31:02.673Z,1025.4
2022-08-09T09:32:16.421Z,1025.5
2022-08-09T09:33:02.244Z,1025.4
2022-08-09T09:34:03.009Z,1025.5
2022-08-09T09:35:02.671Z,1025.4
2022-08-09T09:36:22.330Z,1025.4
2022-08-09T09:37:02.414Z,1025.5
2022-08-09T09:38:02.293Z,1025.5
2022-08-09T09:39:02.145Z,1025.5
2022-08-09T09:40:04.142Z,1025.5
2022-08-09T09:41:04.976Z,1025.5
2022-08-09T09:42:03.194Z,1025.6
2022-08-09T09:43:02.186Z,1025.6
2022-08-09T09:44:27.705Z,1025.5
2022-08-09T09:45:03.814Z,1025.5
2022-08-09T09:46:43.692Z,1025.5
2022-08-09T09:47:04.696Z,1025.5
2022-08-09T09:48:03.450Z,1025.5
2022-08-09T09:49:02.783Z,1025.5
2022-08-09T09:50:23.469Z,1025.5
2022-08-09T09:51:02.089Z,1025.4
2022-08-09T09:52:02.848Z,1025.5
2022-08-09T09:53:10.769Z,1025.5
2022-08-09T09:54:21.230Z,1025.5
2022-08-09T09:55:29.114Z,1025.5
2022-08-09T09:56:06.092Z,1025.5
2022-08-09T09:58:19.875Z,1025.4
2022-08-09T09:58:24.655Z,1025.4
2022-08-09T09:59:01.905Z,1025.5
2022-08-09T10:00:04.795Z,1025.4
2022-08-09T10:01:04.663Z,1025.4
2022-08-09T10:02:03.430Z,1025.4
2022-08-09T10:03:14.605Z,1025.4
2022-08-09T10:04:10.389Z,1025.4
2022-08-09T10:05:07.114Z,1025.3
2022-08-09T10:06:05.796Z,1025.3
2022-08-09T10:07:10.320Z,1025.3
2022-08-09T10:08:28.963Z,1025.4
2022-08-09T10:09:23.510Z,1025.3
2022-08-09T10:10:03.996Z,1025.3
2022-08-09T10:12:28.253Z,1025.4
2022-08-09T10:12:31.618Z,1025.4
2022-08-09T10:13:02.537Z,1025.3
2022-08-09T10:14:02.422Z,1025.3
2022-08-09T10:15:02.915Z,1025.3
2022-08-09T10:17:17.215Z,1025.3
2022-08-09T10:17:56.962Z,1025.2
2022-08-09T10:18:01.959Z,1025.3
2022-08-09T10:19:04.631Z,1025.3
2022-08-09T10:20:02.450Z,1025.3
2022-08-09T10:21:03.514Z,1025.3
2022-08-09T10:22:02.459Z,1025.3
2022-08-09T10:23:02.281Z,1025.3
2022-08-09T10:24:04.589Z,1025.4
2022-08-09T10:25:15.286Z,1025.3
2022-08-09T10:26:11.316Z,1025.3
2022-08-09T10:27:22.192Z,1025.3
2022-08-09T10:28:02.741Z,1025.3
2022-08-09T10:31:40.385Z,1025.3
2022-08-09T10:32:40.465Z,1025.3
2022-08-09T10:32:43.309Z,1025.2
2022-08-09T10:33:08.271Z,1025.2
2022-08-09T10:34:35.913Z,1025.3
2022-08-09T10:35:03.215Z,1025.3
2022-08-09T10:36:03.014Z,1025.3
2022-08-09T10:37:03.256Z,1025.2
2022-08-09T10:38:03.516Z,1025.2
2022-08-09T10:39:02.367Z,1025.2
2022-08-09T10:40:02.413Z,1025.2
2022-08-09T10:41:02.972Z,1025.3
2022-08-09T10:42:04.192Z,1025.2
2022-08-09T10:43:03.600Z,1025.2
2022-08-09T10:44:02.915Z,1025.2
2022-08-09T10:45:16.792Z,1025.2
2022-08-09T10:46:02.713Z,1025.2
2022-08-09T10:48:30.878Z,1025.2
2022-08-09T10:48:32.473Z,1025.2
2022-08-09T10:49:05.165Z,1025.1
2022-08-09T10:50:03.657Z,1025.2
2022-08-09T10:51:02.778Z,1025.2
2022-08-09T10:52:02.576Z,1025.2
2022-08-09T10:53:04.192Z,1025.1
2022-08-09T10:54:05.467Z,1025.2
2022-08-09T10:55:02.306Z,1025.2
2022-08-09T10:56:03.819Z,1025.2
2022-08-09T10:57:04.869Z,1025.2
2022-08-09T10:58:03.183Z,1025.2
2022-08-09T10:59:04.970Z,1025.1
2022-08-09T11:00:03.280Z,1025.1
2022-08-09T11:03:51.174Z,1025.1
2022-08-09T11:03:53.289Z,1025.2
2022-08-09T11:04:01.491Z,1025.2
2022-08-09T11:04:29.671Z,1025.1
2022-08-09T11:05:05.040Z,1025.1
2022-08-09T11:06:03.183Z,1025.2
2022-08-09T11:07:03.251Z,1025.1
2022-08-09T11:08:02.112Z,1025.1
2022-08-09T11:09:17.746Z,1025.1
2022-08-09T11:10:02.591Z,1025.1
2022-08-09T11:11:10.439Z,1025
2022-08-09T11:12:07.334Z,1025
2022-08-09T11:13:03.913Z,1025
2022-08-09T11:14:02.103Z,1025
2022-08-09T11:15:02.746Z,1025
2022-08-09T11:16:07.476Z,1025
2022-08-09T11:17:03.654Z,1025.1
2022-08-09T11:18:04.460Z,1025
2022-08-09T11:19:11.482Z,1025.1
2022-08-09T11:20:23.357Z,1025
2022-08-09T11:21:02.332Z,1025
2022-08-09T11:22:25.850Z,1025
2022-08-09T11:23:10.499Z,1025
2022-08-09T11:24:04.762Z,1025
2022-08-09T11:25:02.767Z,1025
2022-08-09T11:26:04.504Z,1025
2022-08-09T11:27:12.610Z,1025
2022-08-09T11:28:35.242Z,1025
2022-08-09T11:29:01.839Z,1025
2022-08-09T11:30:35.858Z,1025
2022-08-09T11:31:02.170Z,1024.9
2022-08-09T11:32:02.266Z,1025
2022-08-09T11:33:02.081Z,1025
2022-08-09T11:34:03.005Z,1024.9
2022-08-09T11:35:02.335Z,1024.9
2022-08-09T11:36:02.162Z,1025
2022-08-09T11:37:01.881Z,1025
2022-08-09T11:38:02.912Z,1025
2022-08-09T11:39:02.479Z,1024.9
2022-08-09T11:40:04.346Z,1024.9
2022-08-09T11:41:02.156Z,1024.9
2022-08-09T11:42:02.061Z,1024.9
2022-08-09T11:43:01.910Z,1024.9
2022-08-09T11:44:02.808Z,1024.8
2022-08-09T11:45:03.331Z,1024.8
2022-08-09T11:46:01.961Z,1024.9
2022-08-09T11:47:02.174Z,1024.9
2022-08-09T11:48:26.851Z,1024.9
2022-08-09T11:49:05.918Z,1024.9
2022-08-09T11:53:16.126Z,1024.9
2022-08-09T11:54:04.387Z,1024.9
2022-08-09T11:54:07.114Z,1024.9
2022-08-09T11:54:09.485Z,1024.8
2022-08-09T11:55:02.585Z,1024.9
2022-08-09T11:56:03.503Z,1024.9
2022-08-09T11:57:08.153Z,1024.9
2022-08-09T11:58:07.627Z,1024.9
2022-08-09T11:59:03.750Z,1024.9
2022-08-09T12:00:03.353Z,1025
2022-08-09T12:01:02.552Z,1024.9
2022-08-09T12:02:40.690Z,1024.9
2022-08-09T12:03:58.707Z,1025
2022-08-09T12:04:04.317Z,1025
2022-08-09T12:07:08.594Z,1024.9
2022-08-09T12:08:04.626Z,1024.9
2022-08-09T12:09:02.454Z,1024.9
2022-08-09T12:10:02.949Z,1024.9
2022-08-09T12:11:02.374Z,1024.9
2022-08-09T12:12:04.626Z,1024.9
2022-08-09T12:14:37.355Z,1024.9
2022-08-09T12:14:59.084Z,1024.9
2022-08-09T12:15:09.647Z,1024.9
2022-08-09T12:16:03.638Z,1024.9
2022-08-09T12:17:47.727Z,1024.8
2022-08-09T12:18:01.781Z,1024.8
2022-08-09T12:19:04.415Z,1024.8
2022-08-09T12:20:04.399Z,1024.9
2022-08-09T12:21:03.466Z,1024.8
2022-08-09T12:22:03.447Z,1024.8
2022-08-09T12:23:02.613Z,1024.8
2022-08-09T12:24:10.537Z,1024.8
2022-08-09T12:25:02.721Z,1024.8
2022-08-09T12:26:02.551Z,1024.9
2022-08-09T12:29:29.913Z,1024.9
2022-08-09T12:29:32.953Z,1024.9
2022-08-09T12:29:52.752Z,1024.9
2022-08-09T12:30:39.601Z,1024.9
2022-08-09T12:31:31.371Z,1024.9
2022-08-09T12:32:04.177Z,1024.9
2022-08-09T12:33:02.004Z,1025
2022-08-09T12:34:02.103Z,1024.9
2022-08-09T12:35:05.230Z,1024.9
2022-08-09T12:36:02.151Z,1024.9
2022-08-09T12:37:29.465Z,1024.9
2022-08-09T12:38:04.276Z,1024.9
2022-08-09T12:39:04.600Z,1025
2022-08-09T12:40:03.060Z,1024.9
2022-08-09T12:41:05.641Z,1025